This is the latest recevied weather packets stored in our database for station/object DG8SF-13. If no packets are shown the sender has not sent any weather packets the latest 10 day(s).
| Time | Temp. | Humidity | Pressure | Rain* | Wind** | Luminosity | Snow |
|---|---|---|---|---|---|---|---|
| 1787560770 | 20.56° C | 51% | 1020.4 hPa | 0 mm | - | - | - |
| 1787560435 | 20.56° C | 52% | 1020.3 hPa | 0 mm | - | - | - |
| 1787560112 | 20° C | 53% | 1020.4 hPa | 0 mm | - | - | - |
| 1787559788 | 19.44° C | 53% | 1020.5 hPa | 0 mm | - | - | - |
| 1787559475 | 20° C | 51% | 1020.4 hPa | 0 mm | - | - | - |
| 1787559163 | 19.44° C | 54% | 1020.4 hPa | 0 mm | - | - | - |
| 1787558850 | 19.44° C | 52% | 1020.4 hPa | 0 mm | - | - | - |
| 1787558538 | 19.44° C | 52% | 1020.4 hPa | 0 mm | - | - | - |
| 1787558202 | 18.89° C | 53% | 1020.4 hPa | 0 mm | - | - | - |
| 1787557889 | 19.44° C | 53% | 1020.3 hPa | 0 mm | - | - | - |
| 1787557577 | 18.89° C | 54% | 1020.3 hPa | 0 mm | - | - | - |
| 1787557266 | 18.33° C | 54% | 1020.4 hPa | 0 mm | - | - | - |
| 1787556955 | 17.78° C | 56% | 1020.4 hPa | 0 mm | - | - | - |
| 1787556630 | 17.78° C | 57% | 1020.4 hPa | 0 mm | - | - | - |
| 1787556328 | 18.33° C | 56% | 1020.4 hPa | 0 mm | - | - | - |
| 1787556007 | 18.33° C | 55% | 1020.5 hPa | 0 mm | - | - | - |
| 1787555694 | 17.78° C | 56% | 1020.4 hPa | 0 mm | - | - | - |
| 1787555370 | 17.22° C | 59% | 1020.4 hPa | 0 mm | - | - | - |
| 1787555057 | 16.67° C | 59% | 1020.4 hPa | 0 mm | - | - | - |
| 1787554734 | 16.67° C | 61% | 1020.4 hPa | 0 mm | - | - | - |
| 1787554422 | 16.11° C | 62% | 1020.6 hPa | 0 mm | - | - | - |
| 1787554111 | 15.56° C | 64% | 1020.8 hPa | 0 mm | - | - | - |
| 1787553798 | 15° C | 68% | 1020.9 hPa | 0 mm | - | - | - |
| 1787553475 | 15° C | 67% | 1020.9 hPa | 0 mm | - | - | - |
| 1787553161 | 14.44° C | 68% | 1020.9 hPa | 0 mm | - | - | - |
* Rain latest hour (hover to see other rain measurements)
** Current wind speed in m/s (hover to see current wind gust speed)